sensor_id;sensor_type;location;lat;lon;timestamp;P1;durP1;ratioP1;P2;durP2;ratioP2
70796;SDS011;63842;52.144;5.360;2022-09-27T00:00:59;2.72;;;0.50;;
70796;SDS011;63842;52.144;5.360;2022-09-27T00:03:27;3.03;;;0.50;;
70796;SDS011;63842;52.144;5.360;2022-09-27T00:11:06;4.78;;;0.70;;
70796;SDS011;63842;52.144;5.360;2022-09-27T00:13:35;1.27;;;0.50;;
70796;SDS011;63842;52.144;5.360;2022-09-27T00:16:02;5.45;;;0.60;;
70796;SDS011;63842;52.144;5.360;2022-09-27T00:18:32;5.47;;;0.90;;
70796;SDS011;63842;52.144;5.360;2022-09-27T00:21:04;1.50;;;0.50;;
70796;SDS011;63842;52.144;5.360;2022-09-27T00:23:32;3.28;;;0.70;;
70796;SDS011;63842;52.144;5.360;2022-09-27T00:26:02;2.38;;;0.50;;
70796;SDS011;63842;52.144;5.360;2022-09-27T00:28:30;2.97;;;0.50;;
70796;SDS011;63842;52.144;5.360;2022-09-27T00:30:57;2.42;;;0.50;;
70796;SDS011;63842;52.144;5.360;2022-09-27T00:33:25;2.10;;;0.40;;
70796;SDS011;63842;52.144;5.360;2022-09-27T00:35:52;6.65;;;0.77;;
70796;SDS011;63842;52.144;5.360;2022-09-27T00:38:20;2.70;;;0.40;;
70796;SDS011;63842;52.144;5.360;2022-09-27T00:40:47;5.10;;;0.85;;
70796;SDS011;63842;52.144;5.360;2022-09-27T00:43:19;2.67;;;0.57;;
70796;SDS011;63842;52.144;5.360;2022-09-27T00:45:51;2.72;;;0.50;;
70796;SDS011;63842;52.144;5.360;2022-09-27T00:48:28;2.13;;;0.50;;
70796;SDS011;63842;52.144;5.360;2022-09-27T00:50:57;1.52;;;0.50;;
70796;SDS011;63842;52.144;5.360;2022-09-27T00:53:28;3.63;;;0.60;;
70796;SDS011;63842;52.144;5.360;2022-09-27T00:56:04;5.22;;;0.60;;
70796;SDS011;63842;52.144;5.360;2022-09-27T00:58:38;2.50;;;0.40;;
70796;SDS011;63842;52.144;5.360;2022-09-27T01:01:10;2.22;;;0.47;;
70796;SDS011;63842;52.144;5.360;2022-09-27T01:03:43;5.03;;;0.70;;
70796;SDS011;63842;52.144;5.360;2022-09-27T01:06:18;2.65;;;0.43;;
70796;SDS011;63842;52.144;5.360;2022-09-27T01:16:44;1.48;;;0.40;;
70796;SDS011;63842;52.144;5.360;2022-09-27T01:39:49;2.92;;;0.35;;
70796;SDS011;63842;52.144;5.360;2022-09-27T01:43:06;2.55;;;0.70;;
70796;SDS011;63842;52.144;5.360;2022-09-27T01:48:22;2.70;;;0.55;;
70796;SDS011;63842;52.144;5.360;2022-09-27T01:51:01;2.72;;;0.50;;
70796;SDS011;63842;52.144;5.360;2022-09-27T01:53:34;2.80;;;0.52;;
70796;SDS011;63842;52.144;5.360;2022-09-27T01:59:19;2.28;;;0.50;;
70796;SDS011;63842;52.144;5.360;2022-09-27T02:02:12;2.40;;;0.43;;
70796;SDS011;63842;52.144;5.360;2022-09-27T02:05:21;5.57;;;0.70;;
70796;SDS011;63842;52.144;5.360;2022-09-27T02:07:59;4.95;;;1.25;;
70796;SDS011;63842;52.144;5.360;2022-09-27T02:10:36;5.40;;;0.52;;
70796;SDS011;63842;52.144;5.360;2022-09-27T02:18:46;1.92;;;0.50;;
70796;SDS011;63842;52.144;5.360;2022-09-27T02:21:20;4.60;;;0.63;;
70796;SDS011;63842;52.144;5.360;2022-09-27T02:23:52;4.32;;;0.73;;
70796;SDS011;63842;52.144;5.360;2022-09-27T02:26:26;4.32;;;0.82;;
70796;SDS011;63842;52.144;5.360;2022-09-27T02:29:10;4.88;;;0.70;;
70796;SDS011;63842;52.144;5.360;2022-09-27T02:31:49;5.22;;;0.68;;
70796;SDS011;63842;52.144;5.360;2022-09-27T02:34:23;3.28;;;0.75;;
70796;SDS011;63842;52.144;5.360;2022-09-27T02:36:54;3.92;;;0.63;;
70796;SDS011;63842;52.144;5.360;2022-09-27T02:39:21;2.47;;;0.68;;
70796;SDS011;63842;52.144;5.360;2022-09-27T02:41:58;3.78;;;0.60;;
70796;SDS011;63842;52.144;5.360;2022-09-27T02:44:25;5.63;;;0.80;;
70796;SDS011;63842;52.144;5.360;2022-09-27T02:52:47;5.57;;;0.77;;
70796;SDS011;63842;52.144;5.360;2022-09-27T02:55:48;4.50;;;0.70;;
70796;SDS011;63842;52.144;5.360;2022-09-27T03:02:10;4.90;;;0.60;;
70796;SDS011;63842;52.144;5.360;2022-09-27T03:05:09;4.50;;;0.80;;
70796;SDS011;63842;52.144;5.360;2022-09-27T03:07:42;4.13;;;0.65;;
70796;SDS011;63842;52.144;5.360;2022-09-27T03:10:25;5.18;;;0.85;;
70796;SDS011;63842;52.144;5.360;2022-09-27T03:12:53;6.15;;;0.70;;
70796;SDS011;63842;52.144;5.360;2022-09-27T03:15:22;5.13;;;0.93;;
70796;SDS011;63842;52.144;5.360;2022-09-27T03:17:58;7.18;;;1.20;;
70796;SDS011;63842;52.144;5.360;2022-09-27T03:20:28;5.13;;;0.88;;
70796;SDS011;63842;52.144;5.360;2022-09-27T03:23:10;7.43;;;0.80;;
70796;SDS011;63842;52.144;5.360;2022-09-27T03:25:37;5.72;;;0.90;;
70796;SDS011;63842;52.144;5.360;2022-09-27T03:28:04;4.22;;;0.70;;
70796;SDS011;63842;52.144;5.360;2022-09-27T03:30:32;4.15;;;0.75;;
70796;SDS011;63842;52.144;5.360;2022-09-27T03:32:59;6.05;;;1.10;;
70796;SDS011;63842;52.144;5.360;2022-09-27T03:35:44;3.45;;;0.90;;
70796;SDS011;63842;52.144;5.360;2022-09-27T03:38:12;4.70;;;1.27;;
70796;SDS011;63842;52.144;5.360;2022-09-27T03:40:39;5.25;;;0.95;;
70796;SDS011;63842;52.144;5.360;2022-09-27T03:43:08;5.03;;;0.88;;
70796;SDS011;63842;52.144;5.360;2022-09-27T03:45:35;4.80;;;1.00;;
70796;SDS011;63842;52.144;5.360;2022-09-27T03:48:08;5.20;;;0.90;;
70796;SDS011;63842;52.144;5.360;2022-09-27T03:50:35;6.20;;;0.90;;
70796;SDS011;63842;52.144;5.360;2022-09-27T03:53:02;5.93;;;0.85;;
70796;SDS011;63842;52.144;5.360;2022-09-27T03:55:29;5.68;;;0.85;;
70796;SDS011;63842;52.144;5.360;2022-09-27T03:57:56;6.50;;;0.93;;
70796;SDS011;63842;52.144;5.360;2022-09-27T04:00:23;8.90;;;0.90;;
70796;SDS011;63842;52.144;5.360;2022-09-27T04:02:50;4.78;;;0.70;;
70796;SDS011;63842;52.144;5.360;2022-09-27T04:05:20;5.80;;;1.10;;
70796;SDS011;63842;52.144;5.360;2022-09-27T04:07:47;4.90;;;0.85;;
70796;SDS011;63842;52.144;5.360;2022-09-27T04:10:16;6.57;;;1.00;;
70796;SDS011;63842;52.144;5.360;2022-09-27T04:12:43;10.52;;;1.85;;
70796;SDS011;63842;52.144;5.360;2022-09-27T04:15:13;5.05;;;0.82;;
70796;SDS011;63842;52.144;5.360;2022-09-27T04:17:49;6.82;;;0.85;;
70796;SDS011;63842;52.144;5.360;2022-09-27T04:20:31;3.80;;;0.82;;
70796;SDS011;63842;52.144;5.360;2022-09-27T04:23:12;6.38;;;1.15;;
70796;SDS011;63842;52.144;5.360;2022-09-27T04:25:47;4.50;;;0.80;;
70796;SDS011;63842;52.144;5.360;2022-09-27T04:28:19;5.10;;;0.80;;
70796;SDS011;63842;52.144;5.360;2022-09-27T04:30:46;6.10;;;0.85;;
70796;SDS011;63842;52.144;5.360;2022-09-27T04:33:32;4.28;;;0.70;;
70796;SDS011;63842;52.144;5.360;2022-09-27T04:36:14;3.17;;;0.80;;
70796;SDS011;63842;52.144;5.360;2022-09-27T04:39:15;8.10;;;1.00;;
70796;SDS011;63842;52.144;5.360;2022-09-27T04:41:43;4.55;;;0.93;;
70796;SDS011;63842;52.144;5.360;2022-09-27T04:44:11;6.82;;;1.10;;
70796;SDS011;63842;52.144;5.360;2022-09-27T04:46:42;4.70;;;0.90;;
70796;SDS011;63842;52.144;5.360;2022-09-27T04:49:10;5.25;;;1.10;;
70796;SDS011;63842;52.144;5.360;2022-09-27T04:51:38;4.57;;;0.90;;
70796;SDS011;63842;52.144;5.360;2022-09-27T04:54:04;5.22;;;0.80;;
70796;SDS011;63842;52.144;5.360;2022-09-27T04:56:35;4.47;;;0.80;;
70796;SDS011;63842;52.144;5.360;2022-09-27T04:59:03;4.90;;;1.00;;
70796;SDS011;63842;52.144;5.360;2022-09-27T05:01:37;7.97;;;1.25;;
70796;SDS011;63842;52.144;5.360;2022-09-27T05:04:04;7.65;;;1.10;;
70796;SDS011;63842;52.144;5.360;2022-09-27T05:06:33;3.78;;;0.70;;
70796;SDS011;63842;52.144;5.360;2022-09-27T05:09:06;6.45;;;1.05;;
70796;SDS011;63842;52.144;5.360;2022-09-27T05:11:43;7.47;;;1.10;;
70796;SDS011;63842;52.144;5.360;2022-09-27T05:14:29;4.60;;;1.10;;
70796;SDS011;63842;52.144;5.360;2022-09-27T05:17:09;3.85;;;0.90;;
70796;SDS011;63842;52.144;5.360;2022-09-27T05:20:05;5.10;;;0.90;;
70796;SDS011;63842;52.144;5.360;2022-09-27T05:22:42;6.47;;;0.90;;
70796;SDS011;63842;52.144;5.360;2022-09-27T05:25:09;3.55;;;0.75;;
70796;SDS011;63842;52.144;5.360;2022-09-27T05:27:37;5.60;;;1.10;;
70796;SDS011;63842;52.144;5.360;2022-09-27T05:30:04;5.60;;;0.90;;
70796;SDS011;63842;52.144;5.360;2022-09-27T05:32:41;7.60;;;1.05;;
70796;SDS011;63842;52.144;5.360;2022-09-27T05:35:24;6.05;;;1.08;;
70796;SDS011;63842;52.144;5.360;2022-09-27T05:37:54;6.18;;;1.20;;
70796;SDS011;63842;52.144;5.360;2022-09-27T05:40:24;9.13;;;3.05;;
70796;SDS011;63842;52.144;5.360;2022-09-27T05:43:06;8.70;;;2.63;;
70796;SDS011;63842;52.144;5.360;2022-09-27T05:45:33;7.20;;;1.95;;
70796;SDS011;63842;52.144;5.360;2022-09-27T05:48:04;8.05;;;1.80;;
70796;SDS011;63842;52.144;5.360;2022-09-27T05:50:38;5.63;;;1.40;;
70796;SDS011;63842;52.144;5.360;2022-09-27T05:53:05;6.70;;;1.35;;
70796;SDS011;63842;52.144;5.360;2022-09-27T05:55:32;4.07;;;1.08;;
70796;SDS011;63842;52.144;5.360;2022-09-27T05:58:00;8.48;;;1.50;;
70796;SDS011;63842;52.144;5.360;2022-09-27T06:00:38;4.18;;;1.08;;
70796;SDS011;63842;52.144;5.360;2022-09-27T06:03:25;7.85;;;1.27;;
70796;SDS011;63842;52.144;5.360;2022-09-27T06:06:23;6.20;;;1.23;;
70796;SDS011;63842;52.144;5.360;2022-09-27T06:08:54;5.80;;;1.00;;
70796;SDS011;63842;52.144;5.360;2022-09-27T06:11:23;5.72;;;1.17;;
70796;SDS011;63842;52.144;5.360;2022-09-27T06:13:55;4.72;;;1.17;;
70796;SDS011;63842;52.144;5.360;2022-09-27T06:16:23;4.72;;;1.00;;
70796;SDS011;63842;52.144;5.360;2022-09-27T06:18:50;7.38;;;1.33;;
70796;SDS011;63842;52.144;5.360;2022-09-27T06:21:17;2.72;;;1.00;;
70796;SDS011;63842;52.144;5.360;2022-09-27T06:26:31;7.15;;;1.17;;
70796;SDS011;63842;52.144;5.360;2022-09-27T06:29:24;6.82;;;1.30;;
70796;SDS011;63842;52.144;5.360;2022-09-27T06:31:58;8.18;;;1.15;;
70796;SDS011;63842;52.144;5.360;2022-09-27T06:34:39;8.13;;;1.20;;
70796;SDS011;63842;52.144;5.360;2022-09-27T06:37:07;5.53;;;0.90;;
70796;SDS011;63842;52.144;5.360;2022-09-27T06:39:33;4.80;;;1.10;;
70796;SDS011;63842;52.144;5.360;2022-09-27T06:42:20;6.80;;;1.25;;
70796;SDS011;63842;52.144;5.360;2022-09-27T06:45:03;4.70;;;1.00;;
70796;SDS011;63842;52.144;5.360;2022-09-27T06:47:57;6.13;;;0.90;;
70796;SDS011;63842;52.144;5.360;2022-09-27T06:50:38;4.10;;;0.77;;
70796;SDS011;63842;52.144;5.360;2022-09-27T06:53:07;3.75;;;0.80;;
70796;SDS011;63842;52.144;5.360;2022-09-27T06:55:39;3.38;;;0.70;;
70796;SDS011;63842;52.144;5.360;2022-09-27T06:58:06;5.13;;;0.90;;
70796;SDS011;63842;52.144;5.360;2022-09-27T07:01:12;4.10;;;0.93;;
70796;SDS011;63842;52.144;5.360;2022-09-27T07:03:58;5.55;;;0.95;;
70796;SDS011;63842;52.144;5.360;2022-09-27T07:06:44;7.90;;;0.90;;
70796;SDS011;63842;52.144;5.360;2022-09-27T07:09:19;4.25;;;0.70;;
70796;SDS011;63842;52.144;5.360;2022-09-27T07:11:46;4.95;;;0.88;;
70796;SDS011;63842;52.144;5.360;2022-09-27T07:14:13;2.90;;;0.60;;
70796;SDS011;63842;52.144;5.360;2022-09-27T07:16:42;4.10;;;0.90;;
70796;SDS011;63842;52.144;5.360;2022-09-27T07:19:10;4.45;;;0.75;;
70796;SDS011;63842;52.144;5.360;2022-09-27T07:21:40;4.53;;;0.73;;
70796;SDS011;63842;52.144;5.360;2022-09-27T07:24:06;4.15;;;0.77;;
70796;SDS011;63842;52.144;5.360;2022-09-27T07:26:34;2.70;;;0.70;;
70796;SDS011;63842;52.144;5.360;2022-09-27T07:29:03;3.83;;;0.80;;
70796;SDS011;63842;52.144;5.360;2022-09-27T07:31:30;3.58;;;0.45;;
70796;SDS011;63842;52.144;5.360;2022-09-27T07:33:57;2.42;;;0.60;;
70796;SDS011;63842;52.144;5.360;2022-09-27T07:36:24;4.28;;;0.77;;
70796;SDS011;63842;52.144;5.360;2022-09-27T07:38:51;2.63;;;0.57;;
70796;SDS011;63842;52.144;5.360;2022-09-27T07:41:19;4.03;;;1.42;;
70796;SDS011;63842;52.144;5.360;2022-09-27T07:43:46;2.28;;;0.85;;
70796;SDS011;63842;52.144;5.360;2022-09-27T07:46:13;4.88;;;1.02;;
70796;SDS011;63842;52.144;5.360;2022-09-27T07:48:55;5.25;;;0.80;;
70796;SDS011;63842;52.144;5.360;2022-09-27T07:51:43;5.07;;;0.82;;
70796;SDS011;63842;52.144;5.360;2022-09-27T07:54:28;4.90;;;1.23;;
70796;SDS011;63842;52.144;5.360;2022-09-27T07:57:04;3.78;;;0.80;;
70796;SDS011;63842;52.144;5.360;2022-09-27T07:59:37;4.63;;;1.10;;
70796;SDS011;63842;52.144;5.360;2022-09-27T08:02:05;3.08;;;0.80;;
70796;SDS011;63842;52.144;5.360;2022-09-27T08:04:36;7.38;;;0.90;;
70796;SDS011;63842;52.144;5.360;2022-09-27T08:07:03;5.35;;;0.95;;
70796;SDS011;63842;52.144;5.360;2022-09-27T08:09:30;5.20;;;1.10;;
70796;SDS011;63842;52.144;5.360;2022-09-27T08:11:57;5.25;;;0.88;;
70796;SDS011;63842;52.144;5.360;2022-09-27T08:14:24;6.05;;;1.20;;
70796;SDS011;63842;52.144;5.360;2022-09-27T08:16:51;4.05;;;0.93;;
70796;SDS011;63842;52.144;5.360;2022-09-27T08:22:12;4.35;;;1.13;;
70796;SDS011;63842;52.144;5.360;2022-09-27T08:24:46;6.18;;;1.20;;
70796;SDS011;63842;52.144;5.360;2022-09-27T08:27:21;4.60;;;1.10;;
70796;SDS011;63842;52.144;5.360;2022-09-27T08:29:51;9.25;;;1.40;;
70796;SDS011;63842;52.144;5.360;2022-09-27T08:32:18;5.32;;;1.25;;
70796;SDS011;63842;52.144;5.360;2022-09-27T08:34:49;4.85;;;1.30;;
70796;SDS011;63842;52.144;5.360;2022-09-27T08:37:18;7.80;;;1.88;;
70796;SDS011;63842;52.144;5.360;2022-09-27T08:39:46;7.88;;;1.60;;
70796;SDS011;63842;52.144;5.360;2022-09-27T08:42:30;8.85;;;1.30;;
70796;SDS011;63842;52.144;5.360;2022-09-27T08:45:11;6.85;;;1.20;;
70796;SDS011;63842;52.144;5.360;2022-09-27T08:47:39;6.90;;;1.48;;
70796;SDS011;63842;52.144;5.360;2022-09-27T08:55:58;4.45;;;1.00;;
70796;SDS011;63842;52.144;5.360;2022-09-27T08:58:47;4.32;;;1.10;;
70796;SDS011;63842;52.144;5.360;2022-09-27T09:01:24;4.70;;;1.00;;
70796;SDS011;63842;52.144;5.360;2022-09-27T09:04:21;4.10;;;1.00;;
70796;SDS011;63842;52.144;5.360;2022-09-27T09:09:46;6.70;;;1.15;;
70796;SDS011;63842;52.144;5.360;2022-09-27T09:15:45;8.85;;;1.02;;
70796;SDS011;63842;52.144;5.360;2022-09-27T09:24:22;3.05;;;0.70;;
70796;SDS011;63842;52.144;5.360;2022-09-27T09:26:59;2.50;;;0.70;;
70796;SDS011;63842;52.144;5.360;2022-09-27T09:32:43;2.88;;;0.70;;
70796;SDS011;63842;52.144;5.360;2022-09-27T09:35:35;1.77;;;0.60;;
70796;SDS011;63842;52.144;5.360;2022-09-27T09:38:11;4.75;;;0.80;;
70796;SDS011;63842;52.144;5.360;2022-09-27T09:40:57;1.60;;;0.57;;
70796;SDS011;63842;52.144;5.360;2022-09-27T09:43:48;3.95;;;0.68;;
70796;SDS011;63842;52.144;5.360;2022-09-27T09:46:41;5.47;;;0.73;;
70796;SDS011;63842;52.144;5.360;2022-09-27T09:49:23;3.13;;;0.70;;
70796;SDS011;63842;52.144;5.360;2022-09-27T09:51:56;5.15;;;0.80;;
70796;SDS011;63842;52.144;5.360;2022-09-27T09:54:39;4.30;;;0.68;;
70796;SDS011;63842;52.144;5.360;2022-09-27T09:57:16;3.28;;;0.52;;
70796;SDS011;63842;52.144;5.360;2022-09-27T09:59:51;4.07;;;0.85;;
70796;SDS011;63842;52.144;5.360;2022-09-27T10:02:41;5.85;;;0.70;;
70796;SDS011;63842;52.144;5.360;2022-09-27T10:05:15;1.95;;;0.50;;
70796;SDS011;63842;52.144;5.360;2022-09-27T10:07:47;2.03;;;0.52;;
70796;SDS011;63842;52.144;5.360;2022-09-27T10:10:17;3.08;;;0.65;;
70796;SDS011;63842;52.144;5.360;2022-09-27T10:12:51;2.55;;;0.60;;
70796;SDS011;63842;52.144;5.360;2022-09-27T10:15:23;3.17;;;0.50;;
70796;SDS011;63842;52.144;5.360;2022-09-27T10:17:55;3.00;;;0.50;;
70796;SDS011;63842;52.144;5.360;2022-09-27T10:23:03;2.42;;;0.55;;
70796;SDS011;63842;52.144;5.360;2022-09-27T10:26:02;2.05;;;0.60;;
70796;SDS011;63842;52.144;5.360;2022-09-27T10:33:54;3.05;;;0.38;;
70796;SDS011;63842;52.144;5.360;2022-09-27T10:36:29;3.03;;;0.63;;
70796;SDS011;63842;52.144;5.360;2022-09-27T10:38:59;4.93;;;0.70;;
70796;SDS011;63842;52.144;5.360;2022-09-27T10:41:37;3.88;;;0.77;;
70796;SDS011;63842;52.144;5.360;2022-09-27T10:47:11;4.18;;;0.70;;
70796;SDS011;63842;52.144;5.360;2022-09-27T10:50:18;2.33;;;0.50;;
70796;SDS011;63842;52.144;5.360;2022-09-27T10:53:20;3.50;;;0.70;;
70796;SDS011;63842;52.144;5.360;2022-09-27T10:55:57;2.28;;;0.60;;
70796;SDS011;63842;52.144;5.360;2022-09-27T10:58:26;4.03;;;0.60;;
70796;SDS011;63842;52.144;5.360;2022-09-27T11:00:59;3.60;;;0.70;;
70796;SDS011;63842;52.144;5.360;2022-09-27T11:03:36;5.97;;;0.88;;
70796;SDS011;63842;52.144;5.360;2022-09-27T11:06:17;3.10;;;0.60;;
70796;SDS011;63842;52.144;5.360;2022-09-27T11:08:48;3.20;;;0.68;;
70796;SDS011;63842;52.144;5.360;2022-09-27T11:11:24;2.90;;;0.60;;
70796;SDS011;63842;52.144;5.360;2022-09-27T11:13:57;4.53;;;0.90;;
70796;SDS011;63842;52.144;5.360;2022-09-27T11:19:42;3.17;;;1.20;;
70796;SDS011;63842;52.144;5.360;2022-09-27T11:42:52;5.45;;;2.10;;
70796;SDS011;63842;52.144;5.360;2022-09-27T11:57:59;3.58;;;1.20;;
70796;SDS011;63842;52.144;5.360;2022-09-27T12:06:16;3.40;;;0.90;;
70796;SDS011;63842;52.144;5.360;2022-09-27T12:09:11;2.55;;;0.80;;
70796;SDS011;63842;52.144;5.360;2022-09-27T12:11:48;4.20;;;0.70;;
70796;SDS011;63842;52.144;5.360;2022-09-27T12:14:24;1.35;;;0.60;;
70796;SDS011;63842;52.144;5.360;2022-09-27T12:16:57;2.85;;;0.63;;
70796;SDS011;63842;52.144;5.360;2022-09-27T12:19:27;2.67;;;0.80;;
70796;SDS011;63842;52.144;5.360;2022-09-27T12:22:11;2.95;;;0.73;;
70796;SDS011;63842;52.144;5.360;2022-09-27T12:24:44;2.65;;;0.65;;
70796;SDS011;63842;52.144;5.360;2022-09-27T12:27:39;3.60;;;0.70;;
70796;SDS011;63842;52.144;5.360;2022-09-27T12:30:17;4.43;;;0.80;;
70796;SDS011;63842;52.144;5.360;2022-09-27T12:35:35;4.13;;;0.75;;
70796;SDS011;63842;52.144;5.360;2022-09-27T12:40:46;2.05;;;0.80;;
70796;SDS011;63842;52.144;5.360;2022-09-27T12:43:23;3.63;;;0.80;;
70796;SDS011;63842;52.144;5.360;2022-09-27T12:51:28;3.78;;;0.85;;
70796;SDS011;63842;52.144;5.360;2022-09-27T12:57:00;6.65;;;0.98;;
70796;SDS011;63842;52.144;5.360;2022-09-27T13:07:48;5.38;;;0.88;;
70796;SDS011;63842;52.144;5.360;2022-09-27T13:13:29;3.92;;;0.77;;
70796;SDS011;63842;52.144;5.360;2022-09-27T13:16:03;4.20;;;0.60;;
70796;SDS011;63842;52.144;5.360;2022-09-27T13:24:44;3.08;;;0.70;;
70796;SDS011;63842;52.144;5.360;2022-09-27T13:38:34;3.70;;;0.73;;
70796;SDS011;63842;52.144;5.360;2022-09-27T13:41:16;4.15;;;0.77;;
70796;SDS011;63842;52.144;5.360;2022-09-27T13:46:46;4.05;;;0.88;;
70796;SDS011;63842;52.144;5.360;2022-09-27T13:49:21;4.47;;;0.93;;
70796;SDS011;63842;52.144;5.360;2022-09-27T13:52:16;2.67;;;0.80;;
70796;SDS011;63842;52.144;5.360;2022-09-27T13:55:00;4.72;;;1.08;;
70796;SDS011;63842;52.144;5.360;2022-09-27T14:00:04;3.75;;;1.13;;
70796;SDS011;63842;52.144;5.360;2022-09-27T14:05:52;4.35;;;0.90;;
70796;SDS011;63842;52.144;5.360;2022-09-27T14:08:37;3.80;;;1.00;;
70796;SDS011;63842;52.144;5.360;2022-09-27T14:11:12;6.05;;;0.85;;
70796;SDS011;63842;52.144;5.360;2022-09-27T14:13:44;4.43;;;1.05;;
70796;SDS011;63842;52.144;5.360;2022-09-27T14:16:17;5.10;;;1.02;;
70796;SDS011;63842;52.144;5.360;2022-09-27T14:18:53;3.65;;;0.90;;
70796;SDS011;63842;52.144;5.360;2022-09-27T14:21:33;2.78;;;0.80;;
70796;SDS011;63842;52.144;5.360;2022-09-27T14:27:18;3.10;;;0.80;;
70796;SDS011;63842;52.144;5.360;2022-09-27T14:29:58;2.38;;;0.70;;
70796;SDS011;63842;52.144;5.360;2022-09-27T14:32:32;4.18;;;0.90;;
70796;SDS011;63842;52.144;5.360;2022-09-27T14:35:10;3.38;;;0.90;;
70796;SDS011;63842;52.144;5.360;2022-09-27T14:38:09;4.13;;;0.80;;
70796;SDS011;63842;52.144;5.360;2022-09-27T14:41:03;3.17;;;1.00;;
70796;SDS011;63842;52.144;5.360;2022-09-27T14:43:33;5.47;;;0.82;;
70796;SDS011;63842;52.144;5.360;2022-09-27T14:46:05;4.90;;;0.90;;
70796;SDS011;63842;52.144;5.360;2022-09-27T14:48:34;4.40;;;1.30;;
70796;SDS011;63842;52.144;5.360;2022-09-27T14:51:03;6.07;;;1.10;;
70796;SDS011;63842;52.144;5.360;2022-09-27T14:53:47;2.88;;;1.20;;
70796;SDS011;63842;52.144;5.360;2022-09-27T14:56:29;3.58;;;0.90;;
70796;SDS011;63842;52.144;5.360;2022-09-27T14:59:00;4.10;;;0.90;;
70796;SDS011;63842;52.144;5.360;2022-09-27T15:01:34;3.85;;;1.00;;
70796;SDS011;63842;52.144;5.360;2022-09-27T15:04:04;5.70;;;1.10;;
70796;SDS011;63842;52.144;5.360;2022-09-27T15:06:36;5.90;;;1.00;;
70796;SDS011;63842;52.144;5.360;2022-09-27T15:09:04;4.55;;;0.95;;
70796;SDS011;63842;52.144;5.360;2022-09-27T15:11:35;3.65;;;0.90;;
70796;SDS011;63842;52.144;5.360;2022-09-27T15:14:04;3.83;;;1.00;;
70796;SDS011;63842;52.144;5.360;2022-09-27T15:16:33;3.67;;;0.88;;
70796;SDS011;63842;52.144;5.360;2022-09-27T15:19:00;2.35;;;0.90;;
70796;SDS011;63842;52.144;5.360;2022-09-27T15:21:33;5.45;;;1.00;;
70796;SDS011;63842;52.144;5.360;2022-09-27T15:24:02;5.15;;;1.00;;
70796;SDS011;63842;52.144;5.360;2022-09-27T15:26:37;2.55;;;0.80;;
70796;SDS011;63842;52.144;5.360;2022-09-27T15:29:16;4.95;;;1.23;;
70796;SDS011;63842;52.144;5.360;2022-09-27T15:31:56;4.95;;;0.93;;
70796;SDS011;63842;52.144;5.360;2022-09-27T15:34:25;3.65;;;0.80;;
70796;SDS011;63842;52.144;5.360;2022-09-27T15:36:56;2.22;;;0.85;;
70796;SDS011;63842;52.144;5.360;2022-09-27T15:39:32;2.80;;;0.98;;
70796;SDS011;63842;52.144;5.360;2022-09-27T15:42:05;3.47;;;0.90;;
70796;SDS011;63842;52.144;5.360;2022-09-27T15:52:42;3.42;;;1.25;;
70796;SDS011;63842;52.144;5.360;2022-09-27T15:55:13;3.10;;;0.90;;
70796;SDS011;63842;52.144;5.360;2022-09-27T15:57:40;3.15;;;1.00;;
70796;SDS011;63842;52.144;5.360;2022-09-27T16:00:14;3.90;;;1.38;;
70796;SDS011;63842;52.144;5.360;2022-09-27T16:02:43;4.25;;;1.13;;
70796;SDS011;63842;52.144;5.360;2022-09-27T16:05:11;4.53;;;1.38;;
70796;SDS011;63842;52.144;5.360;2022-09-27T16:07:38;7.70;;;1.42;;
70796;SDS011;63842;52.144;5.360;2022-09-27T16:10:12;4.38;;;1.00;;
70796;SDS011;63842;52.144;5.360;2022-09-27T16:12:43;5.25;;;1.40;;
70796;SDS011;63842;52.144;5.360;2022-09-27T16:15:13;5.43;;;1.27;;
70796;SDS011;63842;52.144;5.360;2022-09-27T16:17:41;6.13;;;1.60;;
70796;SDS011;63842;52.144;5.360;2022-09-27T16:20:19;4.82;;;1.30;;
70796;SDS011;63842;52.144;5.360;2022-09-27T16:22:50;6.40;;;1.42;;
70796;SDS011;63842;52.144;5.360;2022-09-27T16:25:18;4.60;;;1.35;;
70796;SDS011;63842;52.144;5.360;2022-09-27T16:27:47;4.95;;;1.50;;
70796;SDS011;63842;52.144;5.360;2022-09-27T16:30:15;5.68;;;1.60;;
70796;SDS011;63842;52.144;5.360;2022-09-27T16:32:43;5.18;;;1.33;;
70796;SDS011;63842;52.144;5.360;2022-09-27T16:35:12;5.68;;;1.55;;
70796;SDS011;63842;52.144;5.360;2022-09-27T16:37:41;5.65;;;1.42;;
70796;SDS011;63842;52.144;5.360;2022-09-27T16:40:08;4.13;;;1.40;;
70796;SDS011;63842;52.144;5.360;2022-09-27T16:42:36;7.03;;;1.40;;
70796;SDS011;63842;52.144;5.360;2022-09-27T16:45:04;3.35;;;1.30;;
70796;SDS011;63842;52.144;5.360;2022-09-27T16:47:38;4.45;;;1.40;;
70796;SDS011;63842;52.144;5.360;2022-09-27T16:50:04;5.55;;;1.20;;
70796;SDS011;63842;52.144;5.360;2022-09-27T16:52:50;4.75;;;1.30;;
70796;SDS011;63842;52.144;5.360;2022-09-27T16:55:18;5.80;;;1.40;;
70796;SDS011;63842;52.144;5.360;2022-09-27T16:57:46;4.00;;;1.40;;
70796;SDS011;63842;52.144;5.360;2022-09-27T17:00:14;6.15;;;1.77;;
70796;SDS011;63842;52.144;5.360;2022-09-27T17:02:42;4.50;;;1.35;;
70796;SDS011;63842;52.144;5.360;2022-09-27T17:05:13;5.53;;;1.77;;
70796;SDS011;63842;52.144;5.360;2022-09-27T17:07:40;6.05;;;2.00;;
70796;SDS011;63842;52.144;5.360;2022-09-27T17:10:08;7.18;;;2.10;;
70796;SDS011;63842;52.144;5.360;2022-09-27T17:12:37;5.78;;;2.30;;
70796;SDS011;63842;52.144;5.360;2022-09-27T17:15:04;6.40;;;1.85;;
70796;SDS011;63842;52.144;5.360;2022-09-27T17:17:32;6.18;;;1.98;;
70796;SDS011;63842;52.144;5.360;2022-09-27T17:19:59;7.70;;;2.05;;
70796;SDS011;63842;52.144;5.360;2022-09-27T17:22:26;4.90;;;1.50;;
70796;SDS011;63842;52.144;5.360;2022-09-27T17:24:53;7.90;;;1.73;;
70796;SDS011;63842;52.144;5.360;2022-09-27T17:27:19;10.40;;;1.80;;
70796;SDS011;63842;52.144;5.360;2022-09-27T17:29:51;8.20;;;1.60;;
70796;SDS011;63842;52.144;5.360;2022-09-27T17:32:18;7.40;;;2.13;;
70796;SDS011;63842;52.144;5.360;2022-09-27T17:37:14;6.00;;;1.95;;
70796;SDS011;63842;52.144;5.360;2022-09-27T17:39:41;5.93;;;2.03;;
70796;SDS011;63842;52.144;5.360;2022-09-27T17:42:08;6.97;;;2.00;;
70796;SDS011;63842;52.144;5.360;2022-09-27T17:44:35;6.10;;;2.10;;
70796;SDS011;63842;52.144;5.360;2022-09-27T17:47:02;5.70;;;2.20;;
70796;SDS011;63842;52.144;5.360;2022-09-27T17:49:48;5.68;;;1.95;;
70796;SDS011;63842;52.144;5.360;2022-09-27T17:52:34;7.22;;;1.98;;
70796;SDS011;63842;52.144;5.360;2022-09-27T17:55:01;6.72;;;2.40;;
70796;SDS011;63842;52.144;5.360;2022-09-27T17:57:28;7.50;;;2.08;;
70796;SDS011;63842;52.144;5.360;2022-09-27T17:59:55;7.15;;;2.30;;
70796;SDS011;63842;52.144;5.360;2022-09-27T18:02:23;6.10;;;1.98;;
70796;SDS011;63842;52.144;5.360;2022-09-27T18:04:51;6.63;;;2.35;;
70796;SDS011;63842;52.144;5.360;2022-09-27T18:07:17;7.90;;;2.17;;
70796;SDS011;63842;52.144;5.360;2022-09-27T18:09:45;5.82;;;1.90;;
70796;SDS011;63842;52.144;5.360;2022-09-27T18:12:12;6.18;;;2.05;;
70796;SDS011;63842;52.144;5.360;2022-09-27T18:14:39;6.82;;;2.17;;
70796;SDS011;63842;52.144;5.360;2022-09-27T18:17:07;4.50;;;1.88;;
70796;SDS011;63842;52.144;5.360;2022-09-27T18:19:38;6.05;;;1.80;;
70796;SDS011;63842;52.144;5.360;2022-09-27T18:22:05;5.25;;;2.13;;
70796;SDS011;63842;52.144;5.360;2022-09-27T18:24:33;6.75;;;1.80;;
70796;SDS011;63842;52.144;5.360;2022-09-27T18:27:00;5.43;;;1.70;;
70796;SDS011;63842;52.144;5.360;2022-09-27T18:29:28;8.48;;;2.30;;
70796;SDS011;63842;52.144;5.360;2022-09-27T18:31:55;7.43;;;2.30;;
70796;SDS011;63842;52.144;5.360;2022-09-27T18:34:22;6.28;;;2.03;;
70796;SDS011;63842;52.144;5.360;2022-09-27T18:36:50;4.85;;;1.83;;
70796;SDS011;63842;52.144;5.360;2022-09-27T18:39:17;5.90;;;2.08;;
70796;SDS011;63842;52.144;5.360;2022-09-27T18:41:45;8.32;;;2.42;;
70796;SDS011;63842;52.144;5.360;2022-09-27T18:44:15;6.63;;;2.10;;
70796;SDS011;63842;52.144;5.360;2022-09-27T18:46:43;7.20;;;2.22;;